Record high temperature 36.9°C Record low temperature -13.1°C Record high gust 62.9 km/h Record high average 34.6 km/h Record daily rain 34.8 mm Record low windchill -16.1°C Record high barometer 1044.0 hPa Record low barometer 980.8 hPa
Daily high pressure 1023.4 hPa Daily low pressure 1020.7 hPa Daily low windchill 12.6°C Daily high heat index 24.4°C Daily high gust speed 20.4 kmh W Daily high average speed 9.9 kmh NNW
Wetterdaten
LETZTE AKTUALISIERUNG UM: 15:15 DATUM: 06 Juli 2022, time of next update: 15:30
Aktuelles Wetterpartly cloudy Aktuelle Temperatur 23.9°C (75.1°F) (Hitze-Index 25.3°C ), Apparent temp 24.4°C , Apparent temp solar 31.9°C
Höchsttemperatur (seit Mitternacht)24.4°C um: 14:53 Tiefsttemperatur (seit Mitternacht)12.6°C um: 05:21
Windgeschwindigkeit (10 Minuten )3.7 kmh (2.0 kts) Windrichtung (Dir) (10 Minuten )WNW (291°)
Hitze-Index 25.3°C Windspitzen (letzte Std)19.9 kmh (10.7 kts) um: 14:46
Windspitzen (seit Mitternacht)20.4 kmh (11.0 kts) um: 14:46 Höchstes Windmittel / Minute (seit Mitternacht)9.9 kmh (5.4 kts) um: 14:56
Regenmenge (letzte Std)0.0 mm Regenmenge (seit Mitternacht)0.0 mm (0.00 in.)---
Regenmenge diesen Monat 17.8 mm (0.70 in.) Regenmenge seit Jahresbeginn 337.2 mm (13.28 in.)
Höchste Regenmenge pro Minute (letzte Std)0.0 mm/min Höchste Regenmenge pro Stunde (letzte 6 Std)0.0 mm/stunde
Regenmenge Gestern 0.0 mm Taupunkt 13.5°C (Wet Bulb :17.8°C )
Luftfeuchtigkeit 52 %, Humidex 27.0°C Aktueller Luftdruck (auf Meereshöhe bezogen)1022.6 hPa
Luftdrucktendenz -0.0 hPa (letzte Std) Trend (letzte 1 Std)gleichbleibend
Luftdrucktendenz (letzte 12 Std)+0.8 hPa Luftdrucktendenz (letzte 6 Std)-0.5 hPa
Maximum Soil temperature (seit Mitternacht) 23.3°C Minimum Soil temperature(seit Mitternacht)17.2°C
Current Soil temperature 17°C
Current Solar 738 W/m²
Maximum solar (seit Mitternacht) 912 W/m² Minimum solar(seit Mitternacht)0 W/m²
Current 06:19 hours of sunshine today, current sky: bewölkt
Sunshine hours for the year: 798:40 hrs Sunshine hours for the month: 49:16 hrs
Current evapotranspiration rate 4.7 mm per day. Yesterday's reading 5.1

Diese Seite wurde mit aktuellen Daten einer DAVIS VP Wetterstation erstellt. Drücken Sie bitte auf "Aktualisieren" oder "neu laden" um die neuesten Daten zu erhalten.


Latest Web Cam Image


Weather report/warning/Metars

Stuttgart-Echterdingen, Germany (EDDS) 48-41N 009-13E 391M
Jul 06, 2022 - 08:50 AM EDT / 2022.07.06 1250 UTC
Wind: from the NW (320 degrees) at 12 MPH (10 KT) (direction variable):0
Visibility: greater than 7 mile(s):0
Sky conditions: partly cloudy
Temperature: 71 F (22 C)
Dew Point: 51 F (11 C)
Relative Humidity: 49%
Pressure (altimeter): 30.21 in. Hg (1023 hPa)
ob: EDDS 061250Z AUTO 32010KT 270V360 9999 SCT043 22/11 Q1023 NOSIG
cycle: 13
Augsburg, Germany (EDMA) 48-26N 010-56E 463M
Jul 06, 2022 - 08:50 AM EDT / 2022.07.06 1250 UTC
Wind: from the NW (310 degrees) at 10 MPH (9 KT):0
Visibility: greater than 7 mile(s):0
Temperature: 75 F (24 C)
Dew Point: 50 F (10 C)
Relative Humidity: 41%
Pressure (altimeter): 30.18 in. Hg (1022 hPa)
ob: EDMA 061250Z 31009KT CAVOK 24/10 Q1022
cycle: 13
Nuernberg, Germany (EDDN) 49-30N 011-03E 318M
Jul 06, 2022 - 08:50 AM EDT / 2022.07.06 1250 UTC
Wind: from the W (280 degrees) at 14 MPH (12 KT) (direction variable):0
Visibility: greater than 7 mile(s):0
Temperature: 75 F (24 C)
Dew Point: 44 F (7 C)
Relative Humidity: 33%
Pressure (altimeter): 30.18 in. Hg (1022 hPa)
ob: EDDN 061250Z AUTO 28012KT 240V300 CAVOK 24/07 Q1022 NOSIG
cycle: 13
Berlin-Tegel, Germany (EDDT) 52-34N 013-19E 37M
Nov 09, 2020 - 01:50 AM EST / 2020.11.09 0650 UTC
Wind: from the E (090 degrees) at 7 MPH (6 KT) (direction variable):0
Visibility: 1 mile(s):0
Sky conditions: overcast
Weather: mist
Temperature: 42 F (6 C)
Dew Point: 41 F (5 C)
Relative Humidity: 93%
Pressure (altimeter): 30.33 in. Hg (1027 hPa)
ob: EDDT 090650Z 09006KT 050V120 3000 BR OVC003 06/05 Q1027
cycle: 7
Friedrichshafen, Germany (EDNY) 47-40N 009-31E 424M
Jul 06, 2022 - 08:50 AM EDT / 2022.07.06 1250 UTC
Wind: Variable at 5 MPH (4 KT):0
Visibility: greater than 7 mile(s):0
Sky conditions: mostly clear
Temperature: 77 F (25 C)
Dew Point: 50 F (10 C)
Relative Humidity: 38%
Pressure (altimeter): 30.18 in. Hg (1022 hPa)
ob: EDNY 061250Z VRB04KT 9999 FEW048 25/10 Q1022
cycle: 13
Hamburg-Finkenwerder, Germany (EDHI) 53-32N 009-50E 13M
Jul 06, 2022 - 08:50 AM EDT / 2022.07.06 1250 UTC
Wind: from the WNW (300 degrees) at 12 MPH (10 KT) (direction variable):0
Visibility: greater than 7 mile(s):0
Sky conditions: partly cloudy
Temperature: 64 F (18 C)
Dew Point: 50 F (10 C)
Relative Humidity: 59%
Pressure (altimeter): 30.18 in. Hg (1022 hPa)
ob: EDHI 061250Z 30010KT 260V340 9999 SCT037 18/10 Q1022
cycle: 13
Amsterdam Airport Schiphol, Netherlands (EHAM) 52-18N 004-46E -2M
Jul 06, 2022 - 08:55 AM EDT / 2022.07.06 1255 UTC
Wind: from the W (260 degrees) at 15 MPH (13 KT) (direction variable):0
Visibility: greater than 7 mile(s):0
Sky conditions: mostly clear
Temperature: 68 F (20 C)
Dew Point: 48 F (9 C)
Relative Humidity: 49%
Pressure (altimeter): 30.27 in. Hg (1025 hPa)
ob: EHAM 061255Z 26013KT 220V290 9999 FEW048 20/09 Q1025 NOSIG
cycle: 13
Stockholm/Skavsta, Sweden (ESKN) 58-47N 016-55E
Jul 06, 2022 - 08:50 AM EDT / 2022.07.06 1250 UTC
Wind: from the WNW (290 degrees) at 12 MPH (10 KT) (direction variable):0
Visibility: greater than 7 mile(s):0
Sky conditions: partly cloudy
Weather: Cumulonimbus clouds observed
Temperature: 66 F (19 C)
Dew Point: 50 F (10 C)
Relative Humidity: 55%
Pressure (altimeter): 29.83 in. Hg (1010 hPa)
ob: ESKN 061250Z 29010KT 250V330 9999 FEW055 FEW056CB SCT098 19/10 Q1010
cycle: 13
Ramstein, Germany (ETAR) 49-26N 007-36E 237M
Jul 06, 2022 - 07:56 AM EDT / 2022.07.06 1156 UTC
Wind: Calm:0
Visibility: greater than 7 mile(s):0
Sky conditions: clear
Temperature: 68.9 F (20.5 C)
Dew Point: 43.5 F (6.4 C)
Relative Humidity: 39%
Pressure (altimeter): 30.26 in. Hg (1024 hPa)
Pressure tendency: 0.01 inches (0.3 hPa) lower than three hours ago
ob: ETAR 061156Z AUTO 00000KT 9999 CLR 21/06 A3026 RMK AO2 SLP245 T02050064 10211 20148 58003 
cycle: 12
Laupheim, Germany (ETHL) 48-13N 009-55E 550M
Jul 06, 2022 - 08:20 AM EDT / 2022.07.06 1220 UTC
Wind: from the WNW (290 degrees) at 8 MPH (7 KT):0
Visibility: greater than 7 mile(s):0
Sky conditions: partly cloudy
Temperature: 73 F (23 C)
Dew Point: 48 F (9 C)
Relative Humidity: 40%
Pressure (altimeter): 30.21 in. Hg (1023 hPa)
ob: ETHL 061220Z 29007KT 9999 SCT060 23/09 Q1023 BLU+BLU+
cycle: 12
Gran Canaria - Canary Islands, Spain (GCLP) 27-56N 015-23W 47M
Jul 06, 2022 - 09:00 AM EDT / 2022.07.06 1300 UTC
Wind: from the NNE (020 degrees) at 32 MPH (28 KT):0
Visibility: greater than 7 mile(s):0
Sky conditions: mostly clear
Temperature: 77 F (25 C)
Dew Point: 62 F (17 C)
Relative Humidity: 61%
Pressure (altimeter): 30.12 in. Hg (1020 hPa)
ob: GCLP 061300Z 02028KT 9999 FEW025 25/17 Q1020 NOSIG
cycle: 13
Hurguada, Egypt (HEGN) 27-09N 033-43E 14M
Jul 06, 2022 - 08:00 AM EDT / 2022.07.06 1200 UTC
Wind: from the N (360 degrees) at 18 MPH (16 KT):0
Visibility: greater than 7 mile(s):0
Temperature: 98 F (37 C)
Dew Point: 44 F (7 C)
Relative Humidity: 15%
Pressure (altimeter): 29.65 in. Hg (1004 hPa)
ob: HEGN 061200Z 36016KT CAVOK 37/07 Q1004 NOSIG
cycle: 12
Chicago / Meigs, IL, United States (KCGX) 41-52N 087-36W
Jun 18, 2008 - 01:45 PM EDT / 2008.06.18 1745 UTC
Wind: from the NW (310 degrees) at 6 MPH (5 KT):0
Visibility: 15 mile(s):0
Sky conditions: overcast
Temperature: 57 F (14 C)
Dew Point: 51 F (11 C)
Relative Humidity: 82%
Pressure (altimeter): 29.89 in. Hg (1012 hPa)
ob: KCGX 181745Z 31005KT 15SM BKN014 OVC030 14/11 A2989
cycle: 18
Paris-Aeroport Charles De Gaulle, France (LFPG) 49-01N 002-32E 109M
Jul 06, 2022 - 09:00 AM EDT / 2022.07.06 1300 UTC
Wind: from the W (280 degrees) at 8 MPH (7 KT) (direction variable):0
Visibility: greater than 7 mile(s):0
Temperature: 77 F (25 C)
Dew Point: 48 F (9 C)
Relative Humidity: 36%
Pressure (altimeter): 30.30 in. Hg (1026 hPa)
ob: LFPG 061300Z 28007KT 230V350 CAVOK 25/09 Q1026 NOSIG
cycle: 13
Hyeres, France (LFTH) 43-06N 006-09E 4M
Jul 06, 2022 - 09:00 AM EDT / 2022.07.06 1300 UTC
Wind: from the ESE (110 degrees) at 9 MPH (8 KT):0
Visibility: greater than 7 mile(s):0
Temperature: 84 F (29 C)
Dew Point: 60 F (16 C)
Relative Humidity: 45%
Pressure (altimeter): 30.00 in. Hg (1016 hPa)
ob: LFTH 061300Z AUTO 11008KT CAVOK 29/16 Q1016 BECMG 20010KT
cycle: 13



Die Wetterdaten werden alle 2 Minuten gespeichert, aber die Datenübertragung findet jede Minute statt. Die beste Ansicht wird in einer Auflösung von 800 x 600 und "True colour" erzielt. Linie zeigt die relative Luftfeuchtigkeit an.

Drücken Sie bitte auf "Aktualisieren" in Ihrem Browser, um die aktuellsten Daten zu erhalten.

Klicken Sie hier, um eine Übersicht der Durchschnitts- u. Extremwerte für den Monat zu erhalten
Created by "Weather Display" software version 10.37S at this start time/date 10:28:59 05.07.2022